createdAt,value
2018-07-21T00:00:06.550Z,18.76
2018-07-21T00:01:06.548Z,18.76
2018-07-21T00:02:06.557Z,18.74
2018-07-21T00:03:06.549Z,18.72
2018-07-21T00:04:06.543Z,18.70
2018-07-21T00:05:06.542Z,18.68
2018-07-21T00:06:06.549Z,18.59
2018-07-21T00:07:06.540Z,18.62
2018-07-21T00:08:06.546Z,18.65
2018-07-21T00:09:06.537Z,18.62
2018-07-21T00:10:06.538Z,18.52
2018-07-21T00:11:06.538Z,18.54
2018-07-21T00:12:06.533Z,18.55
2018-07-21T00:13:06.537Z,18.49
2018-07-21T00:14:06.626Z,18.52
2018-07-21T00:15:06.532Z,18.50
2018-07-21T00:16:06.530Z,18.44
2018-07-21T00:17:06.525Z,18.44
2018-07-21T00:18:06.525Z,18.50
2018-07-21T00:19:06.528Z,18.43
2018-07-21T00:20:06.521Z,18.50
2018-07-21T00:21:06.519Z,18.49
2018-07-21T00:22:06.521Z,18.40
2018-07-21T00:23:06.520Z,18.43
2018-07-21T00:24:06.517Z,18.43
2018-07-21T00:25:06.516Z,18.44
2018-07-21T00:26:06.511Z,18.43
2018-07-21T00:27:06.510Z,18.39
2018-07-21T00:28:06.515Z,18.42
2018-07-21T00:29:06.515Z,18.43
2018-07-21T00:30:06.509Z,18.49
2018-07-21T00:31:06.512Z,18.46
2018-07-21T00:32:06.508Z,18.52
2018-07-21T00:33:06.506Z,18.46
2018-07-21T00:34:06.504Z,18.50
2018-07-21T00:35:06.501Z,18.55
2018-07-21T00:36:06.502Z,18.46
2018-07-21T00:37:06.499Z,18.52
2018-07-21T00:38:06.497Z,18.52
2018-07-21T00:39:06.496Z,18.46
2018-07-21T00:40:06.492Z,18.50
2018-07-21T00:41:06.493Z,18.50
2018-07-21T00:42:06.489Z,18.49
2018-07-21T00:43:06.488Z,18.47
2018-07-21T00:44:06.485Z,18.43
2018-07-21T00:45:06.486Z,18.46
2018-07-21T00:46:06.493Z,18.43
2018-07-21T00:47:06.505Z,18.43
2018-07-21T00:48:06.483Z,18.39
2018-07-21T00:49:06.476Z,18.40
2018-07-21T00:50:06.484Z,18.47
2018-07-21T00:51:06.475Z,18.46
2018-07-21T00:52:06.480Z,18.47
2018-07-21T00:53:06.476Z,18.49
2018-07-21T00:54:06.473Z,18.50
2018-07-21T00:55:06.470Z,18.43
2018-07-21T00:56:06.469Z,18.43
2018-07-21T00:57:06.470Z,18.43
2018-07-21T00:58:06.467Z,18.46
2018-07-21T00:59:06.472Z,18.43
2018-07-21T01:00:06.467Z,18.52
2018-07-21T01:01:06.469Z,18.47
2018-07-21T01:02:06.463Z,18.33
2018-07-21T01:03:06.460Z,18.42
2018-07-21T01:04:06.462Z,18.42
2018-07-21T01:05:06.472Z,18.43
2018-07-21T01:06:06.455Z,18.43
2018-07-21T01:07:06.454Z,18.42
2018-07-21T01:08:06.451Z,18.36
2018-07-21T01:09:06.451Z,18.39
2018-07-21T01:10:06.455Z,18.33
2018-07-21T01:11:06.459Z,18.31
2018-07-21T01:12:06.447Z,18.33
2018-07-21T01:13:06.450Z,18.34
2018-07-21T01:14:06.464Z,18.29
2018-07-21T01:15:06.467Z,18.37
2018-07-21T01:16:06.475Z,18.28
2018-07-21T01:17:06.474Z,18.39
2018-07-21T01:18:06.476Z,18.40
2018-07-21T01:19:06.475Z,18.46
2018-07-21T01:20:06.482Z,18.47
2018-07-21T01:21:06.494Z,18.52
2018-07-21T01:22:06.491Z,18.61
2018-07-21T01:23:06.520Z,18.58
2018-07-21T01:24:06.433Z,18.61
2018-07-21T01:25:06.429Z,18.64
2018-07-21T01:26:06.424Z,18.77
2018-07-21T01:27:06.424Z,18.77
2018-07-21T01:28:06.424Z,18.76
2018-07-21T01:29:06.430Z,18.79
2018-07-21T01:30:06.422Z,18.72
2018-07-21T01:31:06.417Z,18.70
2018-07-21T02:04:39.183Z,18.10
2018-07-21T02:05:39.160Z,18.13
2018-07-21T02:07:32.098Z,18.04
2018-07-21T02:08:32.073Z,18.02
2018-07-21T02:10:24.990Z,17.99
2018-07-21T02:11:24.968Z,17.85
2018-07-21T02:13:17.950Z,18.00
2018-07-21T02:14:17.939Z,17.92
2018-07-21T02:16:10.905Z,17.88
2018-07-21T02:17:10.881Z,17.84
2018-07-21T02:19:03.905Z,17.79
2018-07-21T02:20:03.894Z,17.79
2018-07-21T02:21:56.914Z,17.85
2018-07-21T02:22:56.885Z,17.91
2018-07-21T02:24:49.827Z,17.85
2018-07-21T02:25:49.807Z,17.82
2018-07-21T02:27:42.703Z,17.88
2018-07-21T02:28:42.693Z,17.89
2018-07-21T02:30:35.724Z,17.94
2018-07-21T02:31:35.695Z,17.99
2018-07-21T02:33:28.709Z,17.88
2018-07-21T02:34:28.696Z,17.92
2018-07-21T02:36:21.705Z,17.91
2018-07-21T02:37:21.691Z,17.88
2018-07-21T02:39:14.686Z,17.85
2018-07-21T02:40:14.682Z,17.82
2018-07-21T02:42:07.726Z,17.85
2018-07-21T02:43:07.705Z,17.88
2018-07-21T02:45:00.723Z,17.73
2018-07-21T02:46:00.700Z,17.84
2018-07-21T02:47:53.713Z,17.81
2018-07-21T02:48:53.695Z,17.78
2018-07-21T02:50:46.685Z,17.82
2018-07-21T02:51:46.664Z,17.74
2018-07-21T02:53:39.715Z,17.78
2018-07-21T02:54:39.706Z,17.71
2018-07-21T02:56:32.613Z,17.74
2018-07-21T02:57:32.593Z,17.78
2018-07-21T02:59:25.522Z,17.78
2018-07-21T03:00:25.508Z,17.81
2018-07-21T03:02:18.476Z,17.74
2018-07-21T03:03:18.457Z,17.79
2018-07-21T03:05:11.393Z,17.64
2018-07-21T03:06:11.369Z,17.78
2018-07-21T03:08:04.362Z,17.71
2018-07-21T03:09:04.297Z,17.64
2018-07-21T03:10:57.479Z,17.76
2018-07-21T03:11:57.466Z,17.66
2018-07-21T03:13:50.430Z,17.70
2018-07-21T03:14:50.424Z,17.70
2018-07-21T03:16:43.417Z,17.69
2018-07-21T03:17:43.392Z,17.69
2018-07-21T03:19:36.290Z,17.73
2018-07-21T03:20:36.281Z,17.70
2018-07-21T03:22:29.272Z,17.67
2018-07-21T03:23:29.256Z,17.70
2018-07-21T03:25:22.251Z,17.73
2018-07-21T03:26:22.218Z,17.67
2018-07-21T03:28:15.235Z,17.62
2018-07-21T03:29:15.217Z,17.64
2018-07-21T03:31:08.237Z,17.63
2018-07-21T03:32:08.215Z,17.67
2018-07-21T03:34:01.227Z,17.69
2018-07-21T03:35:01.222Z,17.50
2018-07-21T03:36:54.246Z,17.69
2018-07-21T03:37:54.215Z,17.50
2018-07-21T03:39:47.216Z,17.50
2018-07-21T03:40:47.209Z,17.54
2018-07-21T03:42:40.234Z,17.50
2018-07-21T03:43:40.198Z,17.50
2018-07-21T03:45:34.190Z,17.50
2018-07-21T03:46:34.160Z,17.50
2018-07-21T03:48:27.192Z,17.63
2018-07-21T03:49:27.180Z,17.64
2018-07-21T03:51:20.188Z,17.51
2018-07-21T03:52:20.171Z,17.48
2018-07-21T03:54:13.119Z,17.51
2018-07-21T03:55:13.113Z,17.48
2018-07-21T03:57:06.004Z,17.63
2018-07-21T03:58:05.977Z,17.59
2018-07-21T03:59:58.955Z,17.51
2018-07-21T04:00:58.944Z,17.51
2018-07-21T04:02:51.857Z,17.50
2018-07-21T04:03:51.838Z,17.51
2018-07-21T04:05:44.809Z,17.50
2018-07-21T04:06:44.798Z,17.50
2018-07-21T04:08:37.812Z,17.51
2018-07-21T04:09:37.792Z,17.53
2018-07-21T04:11:30.705Z,17.47
2018-07-21T04:12:30.705Z,17.50
2018-07-21T04:14:23.712Z,17.46
2018-07-21T04:15:23.703Z,17.47
2018-07-21T04:17:16.624Z,17.50
2018-07-21T04:18:16.603Z,17.47
2018-07-21T04:20:09.543Z,17.54
2018-07-21T04:21:09.532Z,17.46
2018-07-21T04:23:02.493Z,17.51
2018-07-21T04:24:02.460Z,17.54
2018-07-21T04:25:55.388Z,17.47
2018-07-21T04:26:55.381Z,17.47
2018-07-21T04:28:48.347Z,17.41
2018-07-21T04:29:48.330Z,17.38
2018-07-21T04:31:41.334Z,17.40
2018-07-21T04:32:41.308Z,17.50
2018-07-21T04:34:34.284Z,17.47
2018-07-21T04:35:34.279Z,17.41
2018-07-21T04:37:27.259Z,17.40
2018-07-21T04:38:27.243Z,17.47
2018-07-21T04:40:20.197Z,17.46
2018-07-21T04:41:20.184Z,17.47
2018-07-21T04:43:13.134Z,17.46
2018-07-21T04:44:13.117Z,17.40
2018-07-21T04:46:06.065Z,17.43
2018-07-21T04:47:06.046Z,17.35
2018-07-21T04:48:58.968Z,17.43
2018-07-21T04:49:58.944Z,17.38
2018-07-21T04:51:51.876Z,17.29
2018-07-21T04:52:51.848Z,17.28
2018-07-21T04:54:44.868Z,17.41
2018-07-21T04:55:44.854Z,17.40
2018-07-21T04:57:37.762Z,17.30
2018-07-21T04:58:37.751Z,17.26
2018-07-21T05:00:30.682Z,17.25
2018-07-21T05:01:30.670Z,17.25
2018-07-21T05:03:23.635Z,17.28
2018-07-21T05:04:23.617Z,17.20
2018-07-21T05:06:16.516Z,17.17
2018-07-21T05:07:16.539Z,17.25
2018-07-21T05:09:09.443Z,17.10
2018-07-21T05:10:09.422Z,17.15
2018-07-21T05:12:02.437Z,17.11
2018-07-21T05:13:02.416Z,17.11
2018-07-21T05:14:55.392Z,17.03
2018-07-21T05:15:55.380Z,17.13
2018-07-21T05:17:48.844Z,17.04
2018-07-21T05:18:48.385Z,16.99
2018-07-21T05:20:41.333Z,17.00
2018-07-21T05:21:41.322Z,16.99
2018-07-21T05:23:34.272Z,16.96
2018-07-21T05:24:34.256Z,16.93
2018-07-21T05:26:27.257Z,17.06
2018-07-21T05:27:27.254Z,16.95
2018-07-21T05:29:20.178Z,16.98
2018-07-21T05:30:20.161Z,17.00
2018-07-21T05:32:13.092Z,16.99
2018-07-21T05:33:13.080Z,17.08
2018-07-21T05:35:06.013Z,17.14
2018-07-21T05:36:06.008Z,17.10
2018-07-21T05:37:58.924Z,17.03
2018-07-21T05:38:58.935Z,17.08
2018-07-21T05:40:52.843Z,17.13
2018-07-21T05:41:52.831Z,17.13
2018-07-21T05:43:45.770Z,17.11
2018-07-21T05:44:45.757Z,17.14
2018-07-21T05:46:38.785Z,17.14
2018-07-21T05:47:38.762Z,17.11
2018-07-21T05:49:31.680Z,17.25
2018-07-21T05:50:31.651Z,17.20
2018-07-21T05:52:24.573Z,17.28
2018-07-21T05:53:24.555Z,17.26
2018-07-21T05:55:17.460Z,17.33
2018-07-21T05:56:17.449Z,17.43
2018-07-21T05:58:10.446Z,17.48
2018-07-21T05:59:10.432Z,17.41
2018-07-21T06:01:03.399Z,17.51
2018-07-21T06:02:03.383Z,17.51
2018-07-21T06:03:56.406Z,17.48
2018-07-21T06:04:56.368Z,17.48
2018-07-21T06:06:49.266Z,17.51
2018-07-21T06:07:49.256Z,17.47
2018-07-21T06:09:42.212Z,17.50
2018-07-21T06:10:42.177Z,17.51
2018-07-21T06:12:35.165Z,17.55
2018-07-21T06:13:35.145Z,17.55
2018-07-21T06:15:28.110Z,17.66
2018-07-21T06:16:28.100Z,17.59
2018-07-21T06:18:21.025Z,17.62
2018-07-21T06:19:21.006Z,17.59
2018-07-21T06:21:13.973Z,17.66
2018-07-21T06:22:13.951Z,17.71
2018-07-21T06:24:06.966Z,17.70
2018-07-21T06:25:06.997Z,17.71
2018-07-21T06:26:59.846Z,17.81
2018-07-21T06:27:59.858Z,17.78
2018-07-21T06:29:52.843Z,17.88
2018-07-21T06:30:52.819Z,17.82
2018-07-21T06:32:45.738Z,17.87
2018-07-21T06:33:45.705Z,17.95
2018-07-21T06:35:38.720Z,17.97
2018-07-21T06:36:38.768Z,18.06
2018-07-21T06:38:31.596Z,18.04
2018-07-21T06:39:31.578Z,18.04
2018-07-21T06:41:24.534Z,18.17
2018-07-21T06:42:24.571Z,18.17
2018-07-21T06:44:17.482Z,18.28
2018-07-21T06:45:17.456Z,18.36
2018-07-21T06:47:10.420Z,18.49
2018-07-21T06:48:10.408Z,18.49
2018-07-21T06:50:03.377Z,18.65
2018-07-21T06:51:03.351Z,18.67
2018-07-21T06:52:56.276Z,18.74
2018-07-21T06:53:56.260Z,18.80
2018-07-21T06:55:49.254Z,18.95
2018-07-21T06:56:49.233Z,19.02
2018-07-21T06:58:42.153Z,18.94
2018-07-21T06:59:42.135Z,19.02
2018-07-21T07:01:35.067Z,19.14
2018-07-21T07:02:35.058Z,19.24
2018-07-21T07:04:28.019Z,19.35
2018-07-21T07:05:28.003Z,19.32
2018-07-21T07:07:21.021Z,19.36
2018-07-21T07:08:21.012Z,19.42
2018-07-21T07:10:14.058Z,19.43
2018-07-21T07:11:14.001Z,19.57
2018-07-21T07:13:07.028Z,19.70
2018-07-21T07:14:07.013Z,19.43
2018-07-21T07:15:59.995Z,19.65
2018-07-21T07:16:59.959Z,19.70
2018-07-21T07:18:52.981Z,19.53
2018-07-21T07:19:52.964Z,19.42
2018-07-21T07:21:45.964Z,19.80
2018-07-21T07:22:45.965Z,19.91
2018-07-21T07:24:38.977Z,19.87
2018-07-21T07:25:38.956Z,20.18
2018-07-21T07:27:32.021Z,20.20
2018-07-21T07:28:31.968Z,20.41
2018-07-21T07:30:24.984Z,20.28
2018-07-21T07:31:25.046Z,20.41
2018-07-21T07:33:18.428Z,20.53
2018-07-21T07:34:18.094Z,20.62
2018-07-21T07:36:11.071Z,20.74
2018-07-21T07:37:11.009Z,20.77
2018-07-21T07:39:04.065Z,20.90
2018-07-21T07:40:04.047Z,21.11
2018-07-21T07:41:56.999Z,21.23
2018-07-21T07:42:57.003Z,21.24
2018-07-21T07:44:49.963Z,21.08
2018-07-21T07:45:49.990Z,20.95
2018-07-21T07:47:42.933Z,21.35
2018-07-21T07:48:42.930Z,21.48
2018-07-21T07:50:35.853Z,21.71
2018-07-21T07:51:35.836Z,21.75
2018-07-21T07:53:28.844Z,21.83
2018-07-21T07:54:28.830Z,21.75
2018-07-21T07:56:21.861Z,22.10
2018-07-21T07:57:21.831Z,22.29
2018-07-21T07:59:14.847Z,22.77
2018-07-21T08:00:14.841Z,22.72
2018-07-21T08:02:07.806Z,23.15
2018-07-21T08:03:07.804Z,23.24
2018-07-21T08:05:00.770Z,23.55
2018-07-21T08:06:00.762Z,23.46
2018-07-21T08:07:53.671Z,23.23
2018-07-21T08:08:53.670Z,23.12
2018-07-21T08:10:46.620Z,23.15
2018-07-21T08:11:46.609Z,23.01
2018-07-21T08:13:39.622Z,22.94
2018-07-21T08:14:39.592Z,22.72
2018-07-21T08:16:32.529Z,22.53
2018-07-21T08:17:32.510Z,22.35
2018-07-21T08:19:25.545Z,22.22
2018-07-21T08:20:25.466Z,22.16
2018-07-21T08:22:18.475Z,21.82
2018-07-21T08:23:18.465Z,21.90
2018-07-21T08:25:11.452Z,22.13
2018-07-21T08:26:11.439Z,22.07
2018-07-21T08:28:04.367Z,21.66
2018-07-21T08:29:04.429Z,21.50
2018-07-21T08:30:57.330Z,21.44
2018-07-21T08:31:57.311Z,21.35
2018-07-21T08:33:50.264Z,21.04
2018-07-21T08:34:50.255Z,21.02
2018-07-21T08:36:43.180Z,20.79
2018-07-21T08:37:43.158Z,20.76
2018-07-21T08:39:36.072Z,20.66
2018-07-21T08:40:36.054Z,20.76
2018-07-21T08:42:29.013Z,20.80
2018-07-21T08:43:29.024Z,20.77
2018-07-21T08:45:21.974Z,20.77
2018-07-21T08:46:21.963Z,20.87
2018-07-21T08:48:14.974Z,21.06
2018-07-21T08:49:14.959Z,21.11
2018-07-21T08:51:07.952Z,21.36
2018-07-21T08:52:07.941Z,21.30
2018-07-21T08:54:00.971Z,21.45
2018-07-21T08:55:00.960Z,21.32
2018-07-21T08:56:54.206Z,21.41
2018-07-21T08:57:54.133Z,21.36
2018-07-21T08:59:47.110Z,21.35
2018-07-21T09:00:47.089Z,21.13
2018-07-21T09:02:40.018Z,21.21
2018-07-21T09:03:40.014Z,21.26
2018-07-21T09:05:32.972Z,21.27
2018-07-21T09:06:32.966Z,21.34
2018-07-21T09:08:25.870Z,21.17
2018-07-21T09:09:25.866Z,21.24
2018-07-21T09:11:18.925Z,21.38
2018-07-21T09:12:18.901Z,21.42
2018-07-21T09:14:11.922Z,21.45
2018-07-21T09:15:11.914Z,21.59
2018-07-21T09:17:04.931Z,21.46
2018-07-21T09:18:04.915Z,21.51
2018-07-21T09:19:57.926Z,21.61
2018-07-21T09:20:57.920Z,21.76
2018-07-21T09:22:50.940Z,21.99
2018-07-21T09:23:50.929Z,22.14
2018-07-21T09:25:43.948Z,22.37
2018-07-21T09:26:43.931Z,22.20
2018-07-21T09:28:36.939Z,22.25
2018-07-21T09:29:36.933Z,22.28
2018-07-21T09:31:29.957Z,22.49
2018-07-21T09:32:29.928Z,22.59
2018-07-21T09:34:23.109Z,22.60
2018-07-21T09:35:23.103Z,22.67
2018-07-21T09:37:16.115Z,22.59
2018-07-21T09:38:16.108Z,22.67
2018-07-21T09:40:09.052Z,22.84
2018-07-21T09:41:09.030Z,22.93
2018-07-21T09:43:01.965Z,23.31
2018-07-21T09:44:01.952Z,23.35
2018-07-21T09:45:54.990Z,23.47
2018-07-21T09:46:54.969Z,23.64
2018-07-21T09:48:48.038Z,24.26
2018-07-21T09:49:48.029Z,24.53
2018-07-21T09:51:41.049Z,25.00
2018-07-21T09:52:41.034Z,25.17
2018-07-21T09:54:33.982Z,25.49
2018-07-21T09:55:33.995Z,25.84
2018-07-21T09:57:27.010Z,25.06
2018-07-21T09:58:26.997Z,25.17
2018-07-21T10:00:20.034Z,25.38
2018-07-21T10:01:20.030Z,25.84
2018-07-21T10:03:13.035Z,26.59
2018-07-21T10:04:13.023Z,27.38
2018-07-21T10:06:06.037Z,27.95
2018-07-21T10:07:06.016Z,27.57
2018-07-21T10:09:00.048Z,27.14
2018-07-21T10:10:00.047Z,26.18
2018-07-21T10:11:53.020Z,26.04
2018-07-21T10:12:53.008Z,25.83
2018-07-21T10:14:46.007Z,27.06
2018-07-21T10:15:46.000Z,28.21
2018-07-21T10:17:39.026Z,27.66
2018-07-21T10:18:39.016Z,27.94
2018-07-21T10:20:32.059Z,29.40
2018-07-21T10:21:32.052Z,30.05
2018-07-21T10:23:26.061Z,30.62
2018-07-21T10:24:26.055Z,30.43
2018-07-21T10:26:19.013Z,29.03
2018-07-21T10:27:19.012Z,29.47
2018-07-21T10:29:12.008Z,30.29
2018-07-21T10:30:12.029Z,30.53
2018-07-21T10:31:12.026Z,30.76
2018-07-21T10:32:12.044Z,30.80
2018-07-21T10:33:12.097Z,30.81
2018-07-21T10:34:12.072Z,30.98
2018-07-21T10:35:12.083Z,30.93
2018-07-21T10:36:12.095Z,31.15
2018-07-21T10:37:12.108Z,30.98
2018-07-21T10:38:12.150Z,31.46
2018-07-21T10:39:12.138Z,31.40
2018-07-21T10:40:12.154Z,31.18
2018-07-21T10:41:12.165Z,30.99
2018-07-21T10:42:12.180Z,31.73
2018-07-21T10:43:12.199Z,32.29
2018-07-21T10:44:12.213Z,32.59
2018-07-21T10:45:12.233Z,32.71
2018-07-21T10:46:12.248Z,32.24
2018-07-21T10:47:12.261Z,31.79
2018-07-21T10:48:12.276Z,30.96
2018-07-21T10:49:12.298Z,29.47
2018-07-21T10:50:12.311Z,28.68
2018-07-21T10:51:12.329Z,28.32
2018-07-21T10:52:12.347Z,29.01
2018-07-21T10:53:12.354Z,29.86
2018-07-21T10:54:12.381Z,30.80
2018-07-21T10:55:12.384Z,30.90
2018-07-21T10:56:12.411Z,31.26
2018-07-21T10:57:12.417Z,31.50
2018-07-21T10:58:12.447Z,32.17
2018-07-21T10:59:12.463Z,31.42
2018-07-21T11:00:12.480Z,31.05
2018-07-21T11:01:12.485Z,31.35
2018-07-21T11:02:12.506Z,30.96
2018-07-21T11:03:12.519Z,30.94
2018-07-21T11:04:12.539Z,30.84
2018-07-21T11:05:12.569Z,30.29
2018-07-21T11:06:12.565Z,30.34
2018-07-21T11:07:12.580Z,30.18
2018-07-21T11:08:12.629Z,29.56
2018-07-21T11:09:12.610Z,28.91
2018-07-21T11:10:12.626Z,27.84
2018-07-21T11:11:12.639Z,27.58
2018-07-21T11:12:12.655Z,27.09
2018-07-21T11:13:12.668Z,27.01
2018-07-21T11:14:12.714Z,26.94
2018-07-21T11:15:12.772Z,27.04
2018-07-21T11:16:12.711Z,26.67
2018-07-21T11:17:12.722Z,27.43
2018-07-21T11:18:12.740Z,28.22
2018-07-21T11:19:12.749Z,28.69
2018-07-21T11:20:12.760Z,29.26
2018-07-21T11:21:12.770Z,28.75
2018-07-21T11:22:12.786Z,28.54
2018-07-21T11:23:12.797Z,28.19
2018-07-21T11:24:12.809Z,28.54
2018-07-21T11:25:12.825Z,28.78
2018-07-21T11:26:12.836Z,29.34
2018-07-21T11:27:12.855Z,29.70
2018-07-21T11:28:12.859Z,30.65
2018-07-21T11:29:12.872Z,31.09
2018-07-21T11:30:12.888Z,31.40
2018-07-21T11:31:12.903Z,32.30
2018-07-21T11:32:12.915Z,30.71
2018-07-21T11:33:12.924Z,29.72
2018-07-21T11:34:12.939Z,28.68
2018-07-21T11:35:12.981Z,28.65
2018-07-21T11:36:13.225Z,28.60
2018-07-21T11:37:12.988Z,29.29
2018-07-21T11:38:12.995Z,28.81
2018-07-21T11:39:13.007Z,29.59
2018-07-21T11:40:13.023Z,30.67
2018-07-21T11:41:13.033Z,31.57
2018-07-21T11:42:13.084Z,32.51
2018-07-21T11:43:13.064Z,31.64
2018-07-21T11:44:13.077Z,31.58
2018-07-21T11:45:13.099Z,32.40
2018-07-21T11:46:13.111Z,32.74
2018-07-21T11:47:13.125Z,33.48
2018-07-21T11:48:13.146Z,33.55
2018-07-21T11:49:13.162Z,34.02
2018-07-21T11:50:13.176Z,33.68
2018-07-21T11:51:13.188Z,34.34
2018-07-21T11:52:13.207Z,34.64
2018-07-21T11:53:13.229Z,33.04
2018-07-21T11:54:13.235Z,31.73
2018-07-21T11:55:13.257Z,31.72
2018-07-21T11:56:13.274Z,31.65
2018-07-21T11:57:13.291Z,31.38
2018-07-21T11:58:13.305Z,31.55
2018-07-21T11:59:13.402Z,32.06
2018-07-21T12:00:13.345Z,32.89
2018-07-21T12:01:13.357Z,33.03
2018-07-21T12:02:13.370Z,32.73
2018-07-21T12:03:13.392Z,31.82
2018-07-21T12:04:13.408Z,31.35
2018-07-21T12:05:13.423Z,30.98
2018-07-21T12:06:13.443Z,30.15
2018-07-21T12:07:13.461Z,28.69
2018-07-21T12:08:13.474Z,28.29
2018-07-21T12:09:13.485Z,28.46
2018-07-21T12:10:13.505Z,28.22
2018-07-21T12:11:13.514Z,27.16
2018-07-21T12:12:13.527Z,26.52
2018-07-21T12:13:13.587Z,26.52
2018-07-21T12:14:13.555Z,26.46
2018-07-21T12:15:13.567Z,25.89
2018-07-21T12:16:13.577Z,25.17
2018-07-21T12:17:13.584Z,24.73
2018-07-21T12:18:13.598Z,24.90
2018-07-21T12:19:13.607Z,25.10
2018-07-21T12:20:13.638Z,24.98
2018-07-21T12:21:13.625Z,24.79
2018-07-21T12:22:13.634Z,25.01
2018-07-21T12:23:13.645Z,25.07
2018-07-21T12:24:13.652Z,25.06
2018-07-21T12:25:13.660Z,25.05
2018-07-21T12:26:13.666Z,25.19
2018-07-21T12:27:13.679Z,25.07
2018-07-21T12:28:13.686Z,25.00
2018-07-21T12:29:13.689Z,25.19
2018-07-21T12:30:13.695Z,25.30
2018-07-21T12:31:13.700Z,25.38
2018-07-21T12:32:13.711Z,25.53
2018-07-21T12:33:13.730Z,25.43
2018-07-21T12:34:13.767Z,25.25
2018-07-21T12:35:13.737Z,25.37
2018-07-21T12:36:13.740Z,25.00
2018-07-21T12:37:13.771Z,25.49
2018-07-21T12:38:13.755Z,25.84
2018-07-21T12:39:13.755Z,26.05
2018-07-21T12:40:13.839Z,25.97
2018-07-21T12:41:13.767Z,25.72
2018-07-21T12:42:13.773Z,25.13
2018-07-21T12:43:13.784Z,24.76
2018-07-21T12:44:13.786Z,24.73
2018-07-21T12:45:13.794Z,24.64
2018-07-21T12:46:13.801Z,25.17
2018-07-21T12:47:13.868Z,25.65
2018-07-21T12:48:13.814Z,26.18
2018-07-21T12:49:13.820Z,26.62
2018-07-21T12:50:13.840Z,26.35
2018-07-21T12:51:13.835Z,26.46
2018-07-21T12:52:13.839Z,26.31
2018-07-21T12:53:13.852Z,26.20
2018-07-21T12:54:13.855Z,26.29
2018-07-21T12:55:13.863Z,25.94
2018-07-21T12:56:13.868Z,25.99
2018-07-21T12:57:13.873Z,26.02
2018-07-21T12:58:13.878Z,26.04
2018-07-21T12:59:13.888Z,26.20
2018-07-21T13:00:13.897Z,26.15
2018-07-21T13:01:13.921Z,26.20
2018-07-21T13:02:13.906Z,26.15
2018-07-21T13:03:13.951Z,26.35
2018-07-21T13:04:13.933Z,26.43
2018-07-21T13:05:13.928Z,26.73
2018-07-21T13:06:13.938Z,27.01
2018-07-21T13:07:13.952Z,27.26
2018-07-21T13:08:13.951Z,27.46
2018-07-21T13:09:13.958Z,27.50
2018-07-21T13:10:13.967Z,27.54
2018-07-21T13:11:13.985Z,27.69
2018-07-21T13:12:13.987Z,27.74
2018-07-21T13:13:13.988Z,27.74
2018-07-21T13:14:13.998Z,27.76
2018-07-21T13:15:13.993Z,27.76
2018-07-21T13:16:14.011Z,27.86
2018-07-21T13:17:14.049Z,27.94
2018-07-21T13:18:14.025Z,27.92
2018-07-21T13:19:14.033Z,27.85
2018-07-21T13:20:14.043Z,27.92
2018-07-21T13:21:14.047Z,27.98
2018-07-21T13:22:14.057Z,27.85
2018-07-21T13:23:14.058Z,27.66
2018-07-21T13:24:14.068Z,27.23
2018-07-21T13:25:14.078Z,27.35
2018-07-21T13:26:14.084Z,27.47
2018-07-21T13:27:14.094Z,27.76
2018-07-21T13:28:14.098Z,27.89
2018-07-21T13:29:14.112Z,27.84
2018-07-21T13:30:14.117Z,28.04
2018-07-21T13:31:14.117Z,28.25
2018-07-21T13:32:14.133Z,28.13
2018-07-21T13:33:14.184Z,28.28
2018-07-21T13:34:14.148Z,28.58
2018-07-21T13:35:14.155Z,28.51
2018-07-21T13:36:14.162Z,28.73
2018-07-21T13:37:14.211Z,28.50
2018-07-21T13:38:14.178Z,28.59
2018-07-21T13:39:14.186Z,28.14
2018-07-21T13:40:14.195Z,27.88
2018-07-21T13:41:14.203Z,27.51
2018-07-21T13:42:14.210Z,27.89
2018-07-21T13:43:14.214Z,27.89
2018-07-21T13:44:14.277Z,27.84
2018-07-21T13:45:14.234Z,27.98
2018-07-21T13:46:14.242Z,28.17
2018-07-21T13:47:14.254Z,28.29
2018-07-21T13:48:14.260Z,28.21
2018-07-21T13:49:14.273Z,27.66
2018-07-21T13:50:14.275Z,27.71
2018-07-21T13:51:14.283Z,27.80
2018-07-21T13:52:14.296Z,27.51
2018-07-21T13:53:14.301Z,27.67
2018-07-21T13:54:14.308Z,27.67
2018-07-21T13:55:14.316Z,27.62
2018-07-21T13:56:14.325Z,27.77
2018-07-21T13:57:14.334Z,27.70
2018-07-21T13:58:14.340Z,27.57
2018-07-21T13:59:14.351Z,27.36
2018-07-21T14:00:14.381Z,27.26
2018-07-21T14:01:14.364Z,27.26
2018-07-21T14:02:14.418Z,26.98
2018-07-21T14:03:14.379Z,26.68
2018-07-21T14:04:14.385Z,26.52
2018-07-21T14:05:14.396Z,26.35
2018-07-21T14:06:14.399Z,26.09
2018-07-21T14:07:14.408Z,25.82
2018-07-21T14:08:14.420Z,25.43
2018-07-21T14:09:14.419Z,25.06
2018-07-21T14:10:14.439Z,24.97
2018-07-21T14:11:14.432Z,24.79
2018-07-21T14:12:14.442Z,24.50
2018-07-21T14:13:14.448Z,24.17
2018-07-21T14:14:14.453Z,24.05
2018-07-21T14:15:14.460Z,23.82
2018-07-21T14:16:14.455Z,23.94
2018-07-21T14:17:14.481Z,24.04
2018-07-21T14:18:14.472Z,24.22
2018-07-21T14:19:14.484Z,24.10
2018-07-21T14:20:14.487Z,24.27
2018-07-21T14:21:14.489Z,23.89
2018-07-21T14:22:14.498Z,23.87
2018-07-21T14:23:14.499Z,23.76
2018-07-21T14:24:14.505Z,23.79
2018-07-21T14:25:14.508Z,23.95
2018-07-21T14:26:14.512Z,23.95
2018-07-21T14:27:14.524Z,24.02
2018-07-21T14:28:14.521Z,24.12
2018-07-21T14:29:14.532Z,24.01
2018-07-21T14:30:14.529Z,24.05
2018-07-21T14:31:14.578Z,24.04
2018-07-21T14:32:14.546Z,24.14
2018-07-21T14:33:14.554Z,23.90
2018-07-21T14:34:14.548Z,23.83
2018-07-21T14:35:14.551Z,23.77
2018-07-21T14:36:14.694Z,23.77
2018-07-21T14:37:14.569Z,23.29
2018-07-21T14:38:14.569Z,22.90
2018-07-21T14:39:14.571Z,22.92
2018-07-21T14:40:14.575Z,22.83
2018-07-21T14:41:14.582Z,22.83
2018-07-21T14:42:14.589Z,22.78
2018-07-21T14:43:14.593Z,22.69
2018-07-21T14:44:14.598Z,22.54
2018-07-21T14:45:14.600Z,22.34
2018-07-21T14:46:14.603Z,22.12
2018-07-21T14:47:14.610Z,22.14
2018-07-21T14:48:14.612Z,21.95
2018-07-21T14:49:14.614Z,22.17
2018-07-21T14:50:14.625Z,22.14
2018-07-21T14:51:14.625Z,22.04
2018-07-21T14:52:14.634Z,21.98
2018-07-21T14:53:14.629Z,21.66
2018-07-21T14:54:14.643Z,21.57
2018-07-21T14:55:14.690Z,21.46
2018-07-21T14:56:14.645Z,21.46
2018-07-21T14:57:14.650Z,21.38
2018-07-21T14:58:14.655Z,21.14
2018-07-21T14:59:14.680Z,21.11
2018-07-21T15:00:14.729Z,21.05
2018-07-21T15:01:14.674Z,21.13
2018-07-21T15:02:14.732Z,21.04
2018-07-21T15:03:14.734Z,21.14
2018-07-21T15:04:14.674Z,21.24
2018-07-21T15:05:14.677Z,21.24
2018-07-21T15:06:14.680Z,21.21
2018-07-21T15:07:14.687Z,21.35
2018-07-21T15:08:14.686Z,21.35
2018-07-21T15:09:14.687Z,21.35
2018-07-21T15:10:14.694Z,21.35
2018-07-21T15:11:14.692Z,21.32
2018-07-21T15:12:14.747Z,21.21
2018-07-21T15:13:14.698Z,21.17
2018-07-21T15:14:14.697Z,21.26
2018-07-21T15:15:14.702Z,21.06
2018-07-21T15:16:14.700Z,20.96
2018-07-21T15:17:14.705Z,21.13
2018-07-21T15:18:14.703Z,21.36
2018-07-21T15:19:14.707Z,21.39
2018-07-21T15:20:14.707Z,21.39
2018-07-21T15:21:14.709Z,21.46
2018-07-21T15:22:14.715Z,21.61
2018-07-21T15:23:14.714Z,21.66
2018-07-21T15:24:14.716Z,21.61
2018-07-21T15:25:14.720Z,21.50
2018-07-21T15:26:14.718Z,21.34
2018-07-21T15:27:14.722Z,21.27
2018-07-21T15:28:14.728Z,21.42
2018-07-21T15:29:14.726Z,21.32
2018-07-21T15:30:14.736Z,21.44
2018-07-21T15:31:14.758Z,21.36
2018-07-21T15:32:14.733Z,21.16
2018-07-21T15:33:14.734Z,21.29
2018-07-21T15:34:14.736Z,21.05
2018-07-21T15:35:14.746Z,20.90
2018-07-21T15:36:14.746Z,21.11
2018-07-21T15:37:14.743Z,21.09
2018-07-21T15:38:14.773Z,21.11
2018-07-21T15:39:14.750Z,21.24
2018-07-21T15:40:14.756Z,21.17
2018-07-21T15:41:14.752Z,21.27
2018-07-21T15:42:14.756Z,21.14
2018-07-21T15:43:14.757Z,21.30
2018-07-21T15:44:14.765Z,21.23
2018-07-21T15:45:14.764Z,21.26
2018-07-21T15:46:14.761Z,21.09
2018-07-21T15:47:14.772Z,21.26
2018-07-21T15:48:14.773Z,21.42
2018-07-21T15:49:14.776Z,21.51
2018-07-21T15:50:14.777Z,21.39
2018-07-21T15:51:14.772Z,21.51
2018-07-21T15:52:14.782Z,21.35
2018-07-21T15:53:14.784Z,21.34
2018-07-21T15:54:14.807Z,21.39
2018-07-21T15:55:14.792Z,21.35
2018-07-21T15:56:14.795Z,21.23
2018-07-21T15:57:14.798Z,21.27
2018-07-21T15:58:14.799Z,21.20
2018-07-21T15:59:14.803Z,21.35